createdAt,value
2019-06-15T00:00:18.222Z,7.77
2019-06-15T00:02:48.666Z,7.80
2019-06-15T00:05:17.261Z,7.93
2019-06-15T00:07:45.895Z,7.77
2019-06-15T00:10:14.661Z,9.03
2019-06-15T00:12:43.366Z,8.53
2019-06-15T00:15:12.148Z,7.83
2019-06-15T00:17:40.729Z,8.57
2019-06-15T00:20:09.315Z,9.70
2019-06-15T00:22:37.857Z,7.87
2019-06-15T00:25:08.090Z,9.70
2019-06-15T00:27:37.783Z,10.80
2019-06-15T00:30:06.789Z,11.20
2019-06-15T00:32:35.323Z,7.13
2019-06-15T00:35:04.809Z,8.07
2019-06-15T00:37:33.391Z,10.50
2019-06-15T00:40:01.923Z,8.90
2019-06-15T00:42:30.517Z,9.70
2019-06-15T00:44:59.196Z,11.80
2019-06-15T00:47:27.711Z,12.40
2019-06-15T00:49:56.256Z,11.23
2019-06-15T00:52:24.790Z,12.73
2019-06-15T00:54:53.325Z,13.03
2019-06-15T00:57:22.026Z,12.30
2019-06-15T00:59:50.659Z,12.30
2019-06-15T01:02:19.255Z,11.80
2019-06-15T01:04:47.883Z,12.13
2019-06-15T01:07:16.451Z,11.17
2019-06-15T01:09:45.109Z,11.27
2019-06-15T01:12:13.798Z,12.07
2019-06-15T01:14:42.446Z,12.60
2019-06-15T01:17:11.076Z,12.33
2019-06-15T01:19:39.659Z,12.10
2019-06-15T01:22:08.143Z,11.27
2019-06-15T01:24:36.772Z,10.97
2019-06-15T01:27:09.014Z,11.63
2019-06-15T01:29:40.378Z,12.07
2019-06-15T01:32:08.766Z,12.47
2019-06-15T01:34:37.269Z,11.83
2019-06-15T01:37:05.727Z,12.00
2019-06-15T01:39:34.315Z,11.80
2019-06-15T01:42:02.851Z,12.27
2019-06-15T01:44:31.311Z,13.07
2019-06-15T01:46:59.719Z,13.67
2019-06-15T01:49:28.101Z,14.90
2019-06-15T01:51:56.564Z,12.63
2019-06-15T01:54:25.083Z,14.83
2019-06-15T01:56:53.568Z,16.70
2019-06-15T01:59:22.511Z,11.40
2019-06-15T02:01:51.058Z,13.33
2019-06-15T02:04:19.540Z,10.30
2019-06-15T02:06:47.919Z,10.40
2019-06-15T02:09:16.333Z,9.03
2019-06-15T02:11:44.777Z,10.73
2019-06-15T02:14:13.195Z,11.47
2019-06-15T02:16:41.697Z,12.07
2019-06-15T02:19:10.570Z,10.87
2019-06-15T02:21:38.953Z,12.27
2019-06-15T02:24:07.349Z,11.87
2019-06-15T02:26:35.721Z,11.67
2019-06-15T02:29:04.081Z,11.00
2019-06-15T02:31:32.584Z,10.63
2019-06-15T02:34:00.945Z,11.23
2019-06-15T02:36:29.310Z,11.77
2019-06-15T02:38:57.840Z,12.10
2019-06-15T02:41:26.207Z,12.33
2019-06-15T02:43:54.578Z,12.40
2019-06-15T02:46:26.485Z,11.67
2019-06-15T02:48:54.198Z,11.10
2019-06-15T02:51:23.395Z,11.73
2019-06-15T02:53:51.980Z,11.10
2019-06-15T02:56:20.577Z,10.80
2019-06-15T02:58:50.231Z,11.80
2019-06-15T03:01:18.657Z,12.33
2019-06-15T03:03:47.288Z,11.27
2019-06-15T03:06:15.925Z,10.73
2019-06-15T03:08:44.746Z,11.47
2019-06-15T03:11:13.534Z,11.33
2019-06-15T03:13:43.911Z,11.67
2019-06-15T03:16:12.281Z,11.93
2019-06-15T03:18:40.711Z,11.80
2019-06-15T03:21:09.086Z,11.60
2019-06-15T03:23:37.539Z,11.73
2019-06-15T03:26:06.245Z,12.80
2019-06-15T03:28:34.856Z,12.10
2019-06-15T03:31:04.496Z,12.27
2019-06-15T03:33:33.040Z,12.53
2019-06-15T03:36:01.745Z,12.50
2019-06-15T03:38:31.511Z,12.53
2019-06-15T03:40:59.948Z,12.53
2019-06-15T03:43:28.464Z,12.93
2019-06-15T03:45:57.078Z,12.73
2019-06-15T03:48:25.431Z,13.00
2019-06-15T03:50:53.917Z,14.17
2019-06-15T03:53:22.281Z,13.80
2019-06-15T03:55:50.676Z,14.63
2019-06-15T03:58:19.200Z,14.37
2019-06-15T04:01:21.067Z,14.27
2019-06-15T04:03:49.946Z,15.03
2019-06-15T04:06:18.491Z,14.27
2019-06-15T04:08:47.174Z,14.17
2019-06-15T04:11:15.756Z,14.40
2019-06-15T04:13:44.225Z,13.00
2019-06-15T04:16:12.774Z,13.57
2019-06-15T04:18:41.394Z,15.03
2019-06-15T04:21:09.826Z,14.73
2019-06-15T04:23:38.358Z,13.50
2019-06-15T04:26:06.858Z,14.03
2019-06-15T04:28:35.409Z,14.03
2019-06-15T04:31:03.989Z,14.17
2019-06-15T04:33:32.597Z,14.43
2019-06-15T04:36:01.146Z,13.53
2019-06-15T04:38:29.584Z,13.93
2019-06-15T04:40:58.186Z,14.00
2019-06-15T04:43:26.759Z,15.50
2019-06-15T04:45:55.398Z,14.93
2019-06-15T04:48:23.889Z,15.57
2019-06-15T04:50:52.361Z,15.93
2019-06-15T04:53:20.766Z,16.50
2019-06-15T04:55:49.483Z,16.10
2019-06-15T04:58:18.005Z,14.90
2019-06-15T05:00:46.606Z,14.37
2019-06-15T05:03:16.016Z,13.23
2019-06-15T05:05:44.453Z,12.83
2019-06-15T05:08:12.824Z,12.73
2019-06-15T05:10:41.645Z,11.37
2019-06-15T05:13:10.111Z,12.10
2019-06-15T05:15:38.503Z,11.20
2019-06-15T05:18:07.916Z,10.87
2019-06-15T05:20:36.304Z,10.53
2019-06-15T05:23:04.892Z,11.17
2019-06-15T05:25:33.553Z,11.47
2019-06-15T05:28:01.933Z,9.58
2019-06-15T05:30:30.301Z,9.20
2019-06-15T05:32:58.809Z,9.43
2019-06-15T05:35:27.276Z,9.13
2019-06-15T05:37:55.758Z,9.27
2019-06-15T05:40:24.252Z,8.68
2019-06-15T05:42:52.736Z,9.38
2019-06-15T05:45:21.461Z,9.05
2019-06-15T05:47:50.079Z,9.10
2019-06-15T05:50:18.670Z,9.60
2019-06-15T05:52:47.267Z,8.98
2019-06-15T05:55:15.789Z,9.28
2019-06-15T05:57:44.329Z,9.83
2019-06-15T06:00:13.713Z,9.55
2019-06-15T06:02:42.189Z,9.13
2019-06-15T06:05:12.156Z,9.53
2019-06-15T06:07:40.622Z,8.73
2019-06-15T06:10:11.679Z,9.05
2019-06-15T06:12:40.214Z,8.85
2019-06-15T06:15:10.354Z,8.48
2019-06-15T06:17:38.891Z,9.08
2019-06-15T06:20:09.496Z,9.20
2019-06-15T06:22:38.054Z,8.93
2019-06-15T06:25:08.400Z,8.78
2019-06-15T06:27:37.089Z,8.45
2019-06-15T06:30:06.579Z,8.43
2019-06-15T06:32:35.062Z,7.25
2019-06-15T06:35:03.976Z,7.30
2019-06-15T06:37:32.614Z,7.78
2019-06-15T06:40:01.154Z,7.17
2019-06-15T06:42:29.726Z,7.37
2019-06-15T06:44:58.281Z,7.03
2019-06-15T06:47:26.682Z,7.17
2019-06-15T06:49:55.292Z,7.83
2019-06-15T06:52:23.746Z,7.72
2019-06-15T06:54:52.246Z,7.80
2019-06-15T06:57:20.800Z,8.28
2019-06-15T06:59:50.304Z,7.33
2019-06-15T07:02:18.920Z,7.60
2019-06-15T07:04:47.424Z,7.33
2019-06-15T07:07:15.982Z,6.72
2019-06-15T07:09:44.588Z,7.35
2019-06-15T07:12:14.096Z,7.37
2019-06-15T07:14:42.739Z,7.70
2019-06-15T07:17:11.307Z,7.15
2019-06-15T07:19:39.849Z,7.20
2019-06-15T07:22:08.377Z,6.95
2019-06-15T07:24:36.904Z,6.67
2019-06-15T07:27:05.529Z,7.37
2019-06-15T07:29:34.191Z,7.25
2019-06-15T07:32:02.828Z,7.10
2019-06-15T07:34:31.322Z,7.33
2019-06-15T07:37:01.635Z,7.15
2019-06-15T07:39:30.252Z,7.75
2019-06-15T07:41:58.794Z,7.50
2019-06-15T07:44:27.461Z,7.42
2019-06-15T07:46:55.951Z,7.03
2019-06-15T07:49:24.489Z,6.95
2019-06-15T07:51:53.065Z,6.97
2019-06-15T07:54:21.526Z,7.30
2019-06-15T07:56:49.919Z,7.58
2019-06-15T07:59:18.444Z,7.53
2019-06-15T08:01:46.927Z,8.25
2019-06-15T08:04:15.419Z,7.55
2019-06-15T08:06:44.018Z,7.15
2019-06-15T08:09:12.572Z,7.03
2019-06-15T08:11:41.169Z,7.25
2019-06-15T08:14:09.775Z,7.30
2019-06-15T08:16:38.272Z,7.20
2019-06-15T08:19:06.764Z,7.03
2019-06-15T08:21:35.222Z,7.72
2019-06-15T08:24:04.931Z,6.70
2019-06-15T08:26:33.679Z,7.25
2019-06-15T08:29:02.278Z,6.97
2019-06-15T08:31:30.732Z,6.95
2019-06-15T08:33:59.211Z,7.05
2019-06-15T08:36:27.657Z,7.00
2019-06-15T08:38:56.220Z,7.05
2019-06-15T08:41:24.889Z,6.80
2019-06-15T08:43:53.537Z,6.75
2019-06-15T08:46:22.030Z,6.45
2019-06-15T08:48:50.519Z,6.47
2019-06-15T08:51:19.081Z,6.87
2019-06-15T08:53:47.586Z,7.05
2019-06-15T08:56:16.139Z,7.08
2019-06-15T08:58:55.110Z,7.47
2019-06-15T09:01:15.080Z,6.78
2019-06-15T09:03:43.491Z,7.20
2019-06-15T09:06:13.019Z,7.35
2019-06-15T09:08:41.489Z,7.78
2019-06-15T09:11:10.209Z,7.80
2019-06-15T09:13:38.867Z,7.30
2019-06-15T09:16:08.349Z,6.10
2019-06-15T09:18:36.844Z,7.10
2019-06-15T09:21:05.354Z,7.60
2019-06-15T09:23:33.881Z,7.00
2019-06-15T09:26:02.559Z,7.78
2019-06-15T09:28:31.334Z,7.42
2019-06-15T09:30:59.849Z,7.33
2019-06-15T09:33:28.367Z,7.72
2019-06-15T09:35:57.056Z,7.58
2019-06-15T09:38:25.856Z,7.47
2019-06-15T09:40:55.529Z,7.20
2019-06-15T09:43:24.111Z,6.87
2019-06-15T09:45:52.736Z,8.10
2019-06-15T09:48:21.377Z,7.65
2019-06-15T09:50:50.002Z,7.85
2019-06-15T09:53:18.533Z,7.60
2019-06-15T09:55:47.096Z,8.15
2019-06-15T09:58:15.746Z,7.47
2019-06-15T10:00:44.595Z,6.78
2019-06-15T10:03:13.136Z,7.03
2019-06-15T10:05:41.871Z,8.00
2019-06-15T10:08:10.515Z,8.33
2019-06-15T10:10:39.020Z,8.38
2019-06-15T10:13:08.416Z,6.92
2019-06-15T10:15:37.029Z,8.38
2019-06-15T10:18:05.609Z,7.42
2019-06-15T10:20:35.260Z,8.23
2019-06-15T10:23:03.756Z,7.42
2019-06-15T10:25:32.193Z,7.80
2019-06-15T10:28:00.895Z,7.65
2019-06-15T10:30:29.589Z,8.08
2019-06-15T10:32:58.134Z,7.80
2019-06-15T10:35:26.786Z,8.08
2019-06-15T10:37:55.339Z,9.08
2019-06-15T10:40:24.456Z,7.85
2019-06-15T10:42:53.133Z,9.25
2019-06-15T10:45:22.229Z,8.75
2019-06-15T10:47:50.634Z,7.90
2019-06-15T10:50:19.586Z,9.58
2019-06-15T10:52:48.107Z,8.80
2019-06-15T10:55:16.738Z,9.20
2019-06-15T10:57:46.411Z,9.10
2019-06-15T11:00:15.971Z,8.75
2019-06-15T11:02:44.654Z,9.50
2019-06-15T11:05:18.457Z,8.85
2019-06-15T11:07:46.887Z,8.40
2019-06-15T11:10:44.119Z,9.08
2019-06-15T11:13:12.631Z,9.13
2019-06-15T11:15:41.850Z,8.90
2019-06-15T11:18:10.645Z,8.80
2019-06-15T11:20:40.264Z,8.18
2019-06-15T11:23:08.906Z,8.20
2019-06-15T11:25:37.542Z,7.40
2019-06-15T11:28:06.082Z,8.73
2019-06-15T11:30:34.621Z,7.80
2019-06-15T11:33:03.218Z,8.90
2019-06-15T11:35:31.776Z,8.13
2019-06-15T11:38:00.320Z,8.13
2019-06-15T11:40:29.039Z,8.40
2019-06-15T11:42:57.664Z,7.67
2019-06-15T11:45:26.280Z,8.35
2019-06-15T11:47:55.049Z,7.87
2019-06-15T11:50:23.731Z,8.58
2019-06-15T11:52:52.383Z,7.62
2019-06-15T11:55:21.086Z,7.83
2019-06-15T11:57:49.516Z,9.45
2019-06-15T12:00:31.356Z,7.90
2019-06-15T12:02:54.373Z,7.75
2019-06-15T12:05:22.961Z,7.50
2019-06-15T12:07:51.702Z,8.95
2019-06-15T12:10:20.183Z,8.33
2019-06-15T12:12:48.569Z,7.85
2019-06-15T12:15:17.146Z,8.23
2019-06-15T12:17:45.753Z,8.73
2019-06-15T12:20:14.336Z,8.43
2019-06-15T12:22:42.921Z,8.45
2019-06-15T12:25:12.213Z,8.53
2019-06-15T12:27:40.668Z,7.92
2019-06-15T12:30:11.976Z,8.43
2019-06-15T12:32:40.576Z,7.95
2019-06-15T12:35:10.531Z,8.28
2019-06-15T12:37:39.386Z,8.58
2019-06-15T12:40:09.681Z,8.58
2019-06-15T12:42:38.143Z,8.58
2019-06-15T12:45:07.551Z,7.83
2019-06-15T12:47:36.083Z,9.00
2019-06-15T12:50:05.241Z,8.18
2019-06-15T12:52:34.688Z,8.48
2019-06-15T12:55:03.509Z,8.40
2019-06-15T12:57:33.031Z,7.95
2019-06-15T13:00:01.646Z,8.70
2019-06-15T13:02:31.804Z,8.55
2019-06-15T13:05:00.399Z,8.75
2019-06-15T13:07:29.047Z,8.35
2019-06-15T13:09:57.621Z,8.35
2019-06-15T13:12:26.276Z,8.58
2019-06-15T13:14:54.861Z,8.35
2019-06-15T13:17:23.293Z,7.92
2019-06-15T13:19:51.899Z,8.28
2019-06-15T13:22:20.621Z,8.65
2019-06-15T13:24:49.986Z,8.58
2019-06-15T13:27:18.558Z,8.55
2019-06-15T13:29:47.166Z,8.48
2019-06-15T13:32:15.899Z,8.25
2019-06-15T13:34:44.329Z,8.78
2019-06-15T13:37:12.899Z,8.78
2019-06-15T13:39:41.457Z,8.73
2019-06-15T13:42:10.236Z,8.40
2019-06-15T13:44:38.851Z,8.68
2019-06-15T13:47:07.381Z,8.30
2019-06-15T13:49:35.941Z,9.03
2019-06-15T13:52:04.734Z,9.23
2019-06-15T13:54:33.391Z,8.70
2019-06-15T13:57:03.141Z,8.28
2019-06-15T13:59:31.792Z,8.25
2019-06-15T14:02:00.401Z,8.63
2019-06-15T14:04:29.015Z,7.97
2019-06-15T14:06:57.837Z,8.75
2019-06-15T14:09:26.413Z,9.10
2019-06-15T14:11:55.053Z,8.55
2019-06-15T14:14:23.764Z,8.05
2019-06-15T14:16:52.381Z,8.48
2019-06-15T14:19:20.918Z,8.68
2019-06-15T14:21:49.715Z,8.38
2019-06-15T14:24:18.382Z,8.50
2019-06-15T14:26:46.811Z,8.43
2019-06-15T14:29:17.536Z,8.70
2019-06-15T14:31:50.123Z,8.38
2019-06-15T14:34:16.588Z,8.70
2019-06-15T14:36:45.215Z,8.08
2019-06-15T14:39:13.696Z,7.97
2019-06-15T14:41:42.439Z,8.20
2019-06-15T14:44:11.113Z,8.60
2019-06-15T14:46:39.918Z,8.28
2019-06-15T14:49:09.590Z,8.75
2019-06-15T14:51:38.269Z,8.00
2019-06-15T14:54:06.847Z,8.50
2019-06-15T14:56:35.556Z,7.97
2019-06-15T14:59:04.609Z,7.83
2019-06-15T15:01:35.007Z,8.53
2019-06-15T15:04:06.150Z,8.03
2019-06-15T15:06:36.637Z,8.50
2019-06-15T15:09:06.743Z,8.05
2019-06-15T15:11:36.750Z,8.23
2019-06-15T15:14:06.698Z,8.05
2019-06-15T15:16:35.566Z,8.03
2019-06-15T15:19:06.139Z,7.75
2019-06-15T15:21:37.001Z,8.25
2019-06-15T15:24:06.202Z,8.08
2019-06-15T15:26:37.074Z,8.85
2019-06-15T15:29:07.024Z,8.45
2019-06-15T15:31:36.316Z,8.75
2019-06-15T15:34:07.702Z,8.43
2019-06-15T15:36:36.867Z,8.10
2019-06-15T15:39:09.936Z,8.88
2019-06-15T15:41:36.993Z,7.87
2019-06-15T15:44:06.656Z,8.40
2019-06-15T15:46:35.203Z,7.85
2019-06-15T15:49:06.897Z,7.55
2019-06-15T15:51:36.747Z,8.20
2019-06-15T15:54:07.236Z,8.63
2019-06-15T15:56:36.101Z,8.30
2019-06-15T15:59:06.833Z,8.90
2019-06-15T16:01:37.019Z,9.40
2019-06-15T16:04:06.377Z,9.00
2019-06-15T16:06:36.313Z,9.05
2019-06-15T16:09:06.241Z,8.55
2019-06-15T16:11:36.999Z,8.13
2019-06-15T16:14:07.168Z,8.83
2019-06-15T16:16:36.713Z,8.48
2019-06-15T16:19:06.543Z,8.35
2019-06-15T16:21:36.671Z,8.70
2019-06-15T16:24:07.461Z,8.73
2019-06-15T16:26:37.595Z,8.88
2019-06-15T16:29:07.003Z,8.43
2019-06-15T16:31:37.384Z,8.95
2019-06-15T16:34:06.318Z,8.73
2019-06-15T16:36:36.455Z,9.13
2019-06-15T16:39:06.597Z,9.13
2019-06-15T16:41:36.393Z,8.18
2019-06-15T16:44:07.206Z,8.93
2019-06-15T16:46:37.003Z,9.08
2019-06-15T16:49:05.721Z,8.28
2019-06-15T16:51:36.168Z,8.40
2019-06-15T16:54:06.301Z,8.43
2019-06-15T16:56:36.106Z,9.10
2019-06-15T16:59:06.710Z,8.38
2019-06-15T17:01:35.532Z,8.93
2019-06-15T17:04:06.128Z,8.08
2019-06-15T17:06:37.614Z,9.13
2019-06-15T17:09:06.251Z,8.10
2019-06-15T17:11:37.466Z,8.03
2019-06-15T17:14:06.937Z,7.85
2019-06-15T17:16:36.819Z,7.85
2019-06-15T17:19:07.067Z,7.60
2019-06-15T17:21:37.258Z,8.58
2019-06-15T17:24:06.853Z,8.85
2019-06-15T17:26:36.486Z,7.92
2019-06-15T17:29:33.792Z,7.92
2019-06-15T17:32:02.343Z,7.40
2019-06-15T17:34:30.852Z,8.08
2019-06-15T17:36:59.566Z,7.58
2019-06-15T17:39:29.634Z,8.15
2019-06-15T17:41:58.324Z,7.87
2019-06-15T17:44:26.809Z,8.25
2019-06-15T17:46:56.613Z,7.08
2019-06-15T17:49:27.120Z,7.37
2019-06-15T17:51:55.729Z,8.30
2019-06-15T17:54:24.256Z,7.85
2019-06-15T17:56:52.747Z,7.33
2019-06-15T17:59:22.323Z,7.20
2019-06-15T18:01:51.218Z,8.13
2019-06-15T18:04:19.750Z,7.60
2019-06-15T18:06:48.279Z,7.47
2019-06-15T18:09:17.273Z,7.53
2019-06-15T18:11:46.604Z,7.60
2019-06-15T18:14:17.696Z,7.33
2019-06-15T18:16:47.009Z,7.05
2019-06-15T18:19:16.992Z,7.45
2019-06-15T18:21:46.754Z,6.87
2019-06-15T18:24:16.254Z,6.05
2019-06-15T18:26:47.367Z,6.78
2019-06-15T18:29:16.732Z,6.55
2019-06-15T18:31:45.786Z,5.95
2019-06-15T18:34:16.796Z,6.85
2019-06-15T18:36:45.893Z,7.08
2019-06-15T18:39:16.587Z,6.80
2019-06-15T18:41:46.246Z,6.12
2019-06-15T18:44:16.060Z,6.25
2019-06-15T18:46:46.517Z,5.95
2019-06-15T18:49:15.982Z,5.90
2019-06-15T18:51:46.108Z,6.45
2019-06-15T18:54:15.979Z,6.15
2019-06-15T18:56:45.941Z,5.33
2019-06-15T18:59:17.411Z,6.08
2019-06-15T19:01:46.990Z,5.95
2019-06-15T19:04:24.696Z,5.37
2019-06-15T19:06:46.775Z,5.75
2019-06-15T19:09:16.263Z,10.08
2019-06-15T19:11:45.015Z,5.50
2019-06-15T19:14:16.403Z,5.78
2019-06-15T19:16:44.133Z,5.42
2019-06-15T19:19:12.625Z,5.58
2019-06-15T19:21:41.298Z,5.72
2019-06-15T19:24:10.673Z,5.92
2019-06-15T19:26:39.184Z,5.55
2019-06-15T19:29:07.800Z,5.17
2019-06-15T19:31:36.843Z,5.53
2019-06-15T19:34:06.820Z,4.92
2019-06-15T19:36:36.620Z,5.90
2019-06-15T19:39:07.991Z,5.73
2019-06-15T19:41:38.056Z,5.70
2019-06-15T19:44:08.589Z,5.90
2019-06-15T19:46:37.202Z,5.90
2019-06-15T19:49:06.343Z,5.80
2019-06-15T19:51:36.277Z,6.22
2019-06-15T19:54:07.034Z,6.15
2019-06-15T19:56:37.183Z,5.92
2019-06-15T19:59:06.866Z,6.15
2019-06-15T20:01:36.232Z,6.00
2019-06-15T20:04:06.499Z,5.45
2019-06-15T20:06:37.074Z,5.43
2019-06-15T20:09:09.151Z,5.40
2019-06-15T20:11:39.661Z,5.87
2019-06-15T20:14:08.238Z,5.97
2019-06-15T20:16:36.745Z,5.70
2019-06-15T20:19:06.881Z,6.50
2019-06-15T20:21:37.486Z,6.00
2019-06-15T20:24:06.478Z,6.20
2019-06-15T20:26:36.562Z,6.17
2019-06-15T20:29:07.152Z,5.93
2019-06-15T20:31:36.908Z,6.07
2019-06-15T20:34:05.823Z,6.33
2019-06-15T20:36:36.597Z,5.83
2019-06-15T20:39:07.279Z,6.23
2019-06-15T20:41:37.661Z,6.73
2019-06-15T20:44:06.197Z,6.17
2019-06-15T20:46:37.157Z,6.50
2019-06-15T20:49:06.500Z,6.53
2019-06-15T20:51:37.132Z,6.70
2019-06-15T20:54:06.979Z,6.83
2019-06-15T20:56:37.349Z,7.53
2019-06-15T20:59:06.539Z,6.97
2019-06-15T21:01:36.853Z,7.00
2019-06-15T21:04:07.294Z,6.77
2019-06-15T21:06:37.139Z,7.37
2019-06-15T21:09:07.424Z,6.77
2019-06-15T21:11:36.244Z,7.00
2019-06-15T21:14:05.543Z,6.80
2019-06-15T21:16:36.810Z,7.03
2019-06-15T21:19:06.541Z,7.10
2019-06-15T21:21:37.420Z,7.30
2019-06-15T21:24:06.417Z,6.63
2019-06-15T21:26:35.242Z,6.70
2019-06-15T21:29:06.709Z,6.87
2019-06-15T21:31:36.820Z,7.37
2019-06-15T21:34:06.989Z,7.50
2019-06-15T21:36:37.673Z,6.73
2019-06-15T21:39:07.858Z,7.50
2019-06-15T21:41:36.885Z,7.10
2019-06-15T21:44:06.310Z,7.20
2019-06-15T21:46:36.405Z,6.50
2019-06-15T21:49:07.279Z,6.30
2019-06-15T21:51:36.692Z,6.13
2019-06-15T21:54:06.990Z,6.97
2019-06-15T21:56:37.093Z,6.63
2019-06-15T21:59:07.459Z,7.00
2019-06-15T22:01:37.663Z,6.80
2019-06-15T22:04:07.068Z,6.77
2019-06-15T22:06:37.238Z,6.43
2019-06-15T22:09:12.555Z,6.53
2019-06-15T22:11:42.993Z,7.47
2019-06-15T22:14:11.846Z,7.40
2019-06-15T22:16:40.625Z,6.83
2019-06-15T22:19:09.216Z,7.40
2019-06-15T22:21:38.328Z,6.80
2019-06-15T22:24:07.098Z,6.60
2019-06-15T22:26:38.059Z,7.50
2019-06-15T22:29:07.392Z,7.63
2019-06-15T22:31:36.389Z,6.90
2019-06-15T22:34:06.553Z,7.50
2019-06-15T22:36:36.451Z,7.63
2019-06-15T22:39:06.574Z,7.10
2019-06-15T22:41:36.025Z,7.30
2019-06-15T22:44:06.328Z,7.27
2019-06-15T22:46:35.153Z,8.20
2019-06-15T22:49:03.643Z,7.60
2019-06-15T22:51:32.154Z,8.10
2019-06-15T22:54:01.708Z,7.23
2019-06-15T22:56:30.225Z,8.00
2019-06-15T22:58:58.738Z,8.20
2019-06-15T23:01:27.272Z,7.73
2019-06-15T23:03:57.118Z,8.10
2019-06-15T23:06:37.466Z,7.37
2019-06-15T23:08:56.574Z,7.73
2019-06-15T23:11:26.620Z,7.60
2019-06-15T23:13:57.459Z,7.40
2019-06-15T23:16:27.035Z,7.30
2019-06-15T23:18:57.062Z,8.00
2019-06-15T23:21:27.084Z,7.37
2019-06-15T23:23:56.421Z,7.67
2019-06-15T23:26:26.161Z,7.83
2019-06-15T23:28:56.445Z,7.67
2019-06-15T23:31:25.276Z,7.63
2019-06-15T23:33:56.043Z,7.17
2019-06-15T23:36:29.039Z,7.53
2019-06-15T23:38:57.685Z,7.47
2019-06-15T23:41:27.278Z,7.77
2019-06-15T23:43:56.163Z,7.37
2019-06-15T23:46:27.057Z,7.47
2019-06-15T23:48:56.579Z,7.57
2019-06-15T23:51:26.499Z,8.13
2019-06-15T23:53:57.181Z,7.57
2019-06-15T23:56:26.081Z,7.10
2019-06-15T23:58:56.049Z,7.90
